TimeEST,TemperatureF,Dew PointF,Humidity,Sea Level PressureIn,VisibilityMPH,Wind Direction,Wind SpeedMPH,Gust SpeedMPH,PrecipitationIn,Events,Conditions,WindDirDegrees,DateUTC
12:53 AM,48.0,41.0,77,30.05,10.0,North,8.1,-,N/A,,Clear,10,2013-02-15 05:53:00
1:53 AM,46.0,41.0,83,30.06,10.0,North,4.6,-,N/A,,Clear,350,2013-02-15 06:53:00
2:53 AM,45.0,39.9,82,30.05,10.0,North,4.6,-,N/A,,Clear,350,2013-02-15 07:53:00
3:53 AM,46.0,41.0,83,30.05,10.0,NNW,5.8,-,N/A,,Clear,340,2013-02-15 08:53:00
4:53 AM,45.0,39.9,82,30.07,10.0,NW,5.8,-,N/A,,Clear,320,2013-02-15 09:53:00
5:53 AM,44.1,39.0,82,30.07,10.0,North,5.8,-,N/A,,Clear,350,2013-02-15 10:53:00
6:53 AM,44.1,39.0,82,30.08,10.0,North,6.9,-,N/A,,Clear,350,2013-02-15 11:53:00
7:53 AM,45.0,39.9,82,30.10,10.0,NNW,5.8,-,N/A,,Clear,340,2013-02-15 12:53:00
8:53 AM,52.0,43.0,71,30.11,10.0,NNE,4.6,-,N/A,,Clear,20,2013-02-15 13:53:00
9:53 AM,55.9,45.0,67,30.11,10.0,NNE,6.9,-,N/A,,Clear,20,2013-02-15 14:53:00
10:53 AM,60.1,45.0,57,30.12,10.0,ENE,8.1,-,N/A,,Mostly Cloudy,60,2013-02-15 15:53:00
11:01 AM,59.0,44.6,59,30.11,10.0,North,9.2,-,N/A,,Scattered Clouds,10,2013-02-15 16:01:00
11:08 AM,60.8,44.6,55,30.11,10.0,North,5.8,-,N/A,,Mostly Cloudy,360,2013-02-15 16:08:00
11:53 AM,60.1,44.1,55,30.10,10.0,Variable,5.8,-,N/A,,Partly Cloudy,0,2013-02-15 16:53:00
12:53 PM,60.1,42.1,51,30.08,10.0,Calm,Calm,-,N/A,,Scattered Clouds,0,2013-02-15 17:53:00
1:53 PM,61.0,44.1,54,30.05,10.0,ENE,5.8,-,N/A,,Partly Cloudy,60,2013-02-15 18:53:00
2:53 PM,62.1,45.0,53,30.03,10.0,Variable,5.8,-,N/A,,Clear,0,2013-02-15 19:53:00
3:53 PM,61.0,44.1,54,30.01,10.0,NE,5.8,-,N/A,,Clear,50,2013-02-15 20:53:00
4:53 PM,60.1,45.0,57,30.01,10.0,ENE,9.2,-,N/A,,Clear,60,2013-02-15 21:53:00
5:53 PM,57.9,44.1,60,30.00,10.0,East,5.8,-,N/A,,Clear,90,2013-02-15 22:53:00
6:53 PM,53.1,45.0,74,30.01,10.0,Calm,Calm,-,N/A,,Clear,0,2013-02-15 23:53:00
7:53 PM,50.0,44.1,80,30.01,10.0,Calm,Calm,-,N/A,,Clear,0,2013-02-16 00:53:00
8:53 PM,48.0,44.1,86,30.02,10.0,Calm,Calm,-,N/A,,Clear,0,2013-02-16 01:53:00
9:53 PM,46.9,43.0,86,30.02,10.0,Calm,Calm,-,N/A,,Clear,0,2013-02-16 02:53:00
10:53 PM,46.0,41.0,83,30.01,10.0,Calm,Calm,-,N/A,,Clear,0,2013-02-16 03:53:00
11:53 PM,45.0,42.1,90,30.00,10.0,Calm,Calm,-,N/A,,Clear,0,2013-02-16 04:53:00